Time;durP1;ratioP1;P1;durP2;ratioP2;P2;SDS_P1;SDS_P2;PMS_P1;PMS_P2;Temp;Humidity;BMP_temperature;BMP_pressure;BME280_temperature;BME280_humidity;BME280_pressure;Samples;Min_cycle;Max_cycle;Signal;HPM_P1;HPM_P2
2022/04/07 00:01:44;;;;;;;0.20;0.20;;;11.00;99.90;;;11.54;nan;99098.50;4993604;28;20629;-71
2022/04/07 00:04:11;;;;;;;0.20;0.20;;;11.10;99.90;;;11.61;nan;99102.13;4991398;28;21044;-71
2022/04/07 00:06:38;;;;;;;0.30;0.20;;;11.20;99.90;;;11.65;nan;99106.06;4991359;28;20660;-71
2022/04/07 00:09:06;;;;;;;0.30;0.20;;;11.30;99.90;;;11.62;nan;99085.50;4992320;28;20629;-71
2022/04/07 00:11:33;;;;;;;0.20;0.20;;;11.30;99.90;;;11.61;nan;99073.38;4993063;28;20638;-72
2022/04/07 00:14:00;;;;;;;0.30;0.20;;;11.30;99.90;;;11.52;nan;99072.53;4975874;28;20654;-71
2022/04/07 00:16:26;;;;;;;0.30;0.20;;;11.10;99.90;;;11.46;nan;99060.06;4992052;28;20649;-72
2022/04/07 00:18:53;;;;;;;0.20;0.20;;;11.10;99.90;;;11.41;nan;99045.84;4974948;28;20642;-71
2022/04/07 00:21:35;;;;;;;0.20;0.20;;;11.00;99.90;;;11.40;nan;99036.38;4992551;28;20614;-73
2022/04/07 00:24:03;;;;;;;1.17;1.17;;;11.00;99.90;;;11.41;nan;99045.84;4990929;28;20662;-71
2022/04/07 00:26:31;;;;;;;0.30;0.20;;;11.00;99.90;;;11.47;nan;99053.06;4993170;28;20658;-70
2022/04/07 00:28:58;;;;;;;5.83;1.37;;;11.00;99.90;;;11.42;nan;99045.69;4992000;28;20633;-71
2022/04/07 00:31:25;;;;;;;0.20;0.20;;;11.00;99.90;;;11.48;nan;99041.63;4991342;28;20634;-72
2022/04/07 00:33:53;;;;;;;0.30;0.20;;;11.10;99.90;;;11.38;nan;99036.53;4992217;28;21068;-71
2022/04/07 00:36:19;;;;;;;0.20;0.20;;;11.00;99.90;;;11.20;nan;99022.69;4991866;28;20641;-69
2022/04/07 00:38:46;;;;;;;0.30;0.30;;;10.90;99.90;;;11.22;nan;99030.38;4974968;28;20634;-71
2022/04/07 00:41:13;;;;;;;0.30;0.20;;;10.90;99.90;;;11.26;nan;99021.28;4991847;28;20630;-72
2022/04/07 00:43:40;;;;;;;0.30;0.20;;;10.90;99.90;;;11.21;nan;99013.91;4975760;28;20653;-71
2022/04/07 00:46:07;;;;;;;0.20;0.20;;;10.80;99.90;;;11.13;nan;99015.63;4974435;28;21049;-71
2022/04/07 00:48:35;;;;;;;0.20;0.20;;;10.70;99.90;;;11.14;nan;99019.91;4976467;28;21260;-69
2022/04/07 00:51:03;;;;;;;0.20;0.20;;;10.70;99.90;;;11.13;nan;99010.41;4972953;28;20615;-71
2022/04/07 00:56:00;;;;;;;0.73;0.73;;;10.70;99.90;;;11.18;nan;99000.34;4971935;28;20666;-67
2022/04/07 00:58:29;;;;;;;0.20;0.20;;;10.80;99.90;;;11.07;nan;98995.38;4955221;28;20635;-70
2022/04/07 01:00:57;;;;;;;0.20;0.20;;;10.70;99.90;;;11.09;nan;99004.69;4955993;28;20669;-70
2022/04/07 01:03:25;;;;;;;0.20;0.20;;;10.70;99.90;;;11.10;nan;99001.09;4972624;28;20615;-70
2022/04/07 01:05:52;;;;;;;0.20;0.20;;;10.70;99.90;;;11.15;nan;98996.25;4971044;28;20670;-70
2022/04/07 01:08:19;;;;;;;0.20;0.20;;;10.70;99.90;;;11.22;nan;98983.41;4968058;28;20635;-69
2022/04/07 01:10:47;;;;;;;0.30;0.30;;;10.80;99.90;;;11.23;nan;98988.47;4956765;28;20635;-70
2022/04/07 01:13:15;;;;;;;0.30;0.30;;;10.80;99.90;;;11.26;nan;98992.56;4956831;28;20634;-70
2022/04/07 01:15:42;;;;;;;6.53;2.20;;;10.80;99.90;;;11.35;nan;98978.59;4956546;28;20666;-69
2022/04/07 01:18:09;;;;;;;0.20;0.20;;;10.90;99.90;;;11.34;nan;98971.72;4954401;28;20703;-69
2022/04/07 01:20:38;;;;;;;0.30;0.30;;;10.90;99.90;;;11.30;nan;98979.03;4955165;28;20650;-69
2022/04/07 01:23:07;;;;;;;0.20;0.20;;;10.90;99.90;;;11.41;nan;98975.34;4954939;28;21063;-69
2022/04/07 01:25:36;;;;;;;0.23;0.23;;;11.00;99.90;;;11.41;nan;98967.53;4955656;28;20642;-70
2022/04/07 01:28:03;;;;;;;0.20;0.20;;;11.00;99.90;;;11.41;nan;98970.13;4971408;28;20679;-70
2022/04/07 01:30:30;;;;;;;0.20;0.20;;;11.00;99.90;;;11.36;nan;98961.94;4971720;28;20628;-70
2022/04/07 01:32:59;;;;;;;0.20;0.20;;;10.90;99.90;;;11.37;nan;98948.72;4954597;28;20639;-69
2022/04/07 01:35:27;;;;;;;0.20;0.20;;;11.00;99.90;;;11.41;nan;98949.25;4971241;28;20658;-66
2022/04/07 01:37:57;;;;;;;0.20;0.20;;;11.00;99.90;;;11.45;nan;98942.72;4972242;28;20631;-69
2022/04/07 01:40:31;;;;;;;0.20;0.20;;;11.00;99.90;;;11.35;nan;98947.25;4972667;28;20645;-69
2022/04/07 01:42:58;;;;;;;0.20;0.20;;;10.90;99.90;;;11.38;nan;98947.75;4967121;28;20636;-69
2022/04/07 01:45:26;;;;;;;0.20;0.20;;;11.00;99.90;;;11.36;nan;98941.03;4953763;28;20658;-67
2022/04/07 01:47:54;;;;;;;0.20;0.20;;;10.90;99.90;;;11.38;nan;98942.53;4938673;28;20631;-70
2022/04/07 01:50:24;;;;;;;0.20;0.20;;;10.90;99.90;;;11.34;nan;98945.59;4972493;28;20638;-69
2022/04/07 01:52:52;;;;;;;0.20;0.20;;;10.90;99.90;;;11.45;nan;98932.28;4970777;28;20643;-70
2022/04/07 01:55:20;;;;;;;0.30;0.30;;;11.10;99.90;;;11.40;nan;98924.09;4953934;28;20661;-69
2022/04/07 01:57:48;;;;;;;0.87;0.87;;;11.00;99.90;;;11.40;nan;98924.09;4971276;28;20631;-70
2022/04/07 02:00:16;;;;;;;0.20;0.20;;;11.00;99.90;;;11.26;nan;98922.91;4956101;28;20619;-70
2022/04/07 02:02:45;;;;;;;0.20;0.20;;;10.90;99.90;;;11.28;nan;98920.13;4972205;28;20611;-69
2022/04/07 02:05:13;;;;;;;0.20;0.20;;;10.90;99.90;;;11.34;nan;98925.53;4960360;28;20666;-70
2022/04/07 02:07:43;;;;;;;0.20;0.20;;;11.00;99.90;;;11.38;nan;98915.59;4990019;28;20673;-69
2022/04/07 02:10:12;;;;;;;0.20;0.20;;;11.00;99.90;;;11.38;nan;98915.59;4988459;28;21178;-69
2022/04/07 02:12:41;;;;;;;0.20;0.20;;;11.00;99.90;;;11.39;nan;98915.44;4973107;28;20627;-69
2022/04/07 02:15:10;;;;;;;0.20;0.20;;;11.00;99.90;;;11.37;nan;98914.75;4953788;28;20660;-69
2022/04/07 02:17:38;;;;;;;0.20;0.20;;;11.10;99.90;;;11.42;nan;98912.50;4938959;28;20727;-69
2022/04/07 02:20:08;;;;;;;0.20;0.20;;;11.00;99.90;;;11.44;nan;98909.75;4970573;28;20636;-69
2022/04/07 02:22:35;;;;;;;0.20;0.20;;;11.10;99.90;;;11.38;nan;98908.59;4955291;28;21153;-66
2022/04/07 02:25:04;;;;;;;0.20;0.20;;;11.10;99.90;;;11.41;nan;98902.22;4953146;28;20663;-69
2022/04/07 02:27:40;;;;;;;0.20;0.20;;;11.10;99.90;;;11.30;nan;98884.22;4972222;28;20663;-69
2022/04/07 02:30:10;;;;;;;0.20;0.20;;;11.00;99.90;;;11.31;nan;98898.91;4953627;28;21189;-69
2022/04/07 02:32:38;;;;;;;0.20;0.20;;;11.00;99.90;;;11.31;nan;98899.72;4955660;28;20943;-67
2022/04/07 02:35:06;;;;;;;0.20;0.20;;;11.00;99.90;;;11.30;nan;98898.13;4957610;28;20706;-69
2022/04/07 02:37:33;;;;;;;0.20;0.20;;;11.00;99.90;;;11.31;nan;98894.50;4970663;28;20631;-70
2022/04/07 02:39:58;;;;;;;0.20;0.20;;;11.00;99.90;;;11.41;nan;98883.97;4953389;28;20627;-70
2022/04/07 02:42:25;;;;;;;0.20;0.20;;;11.10;99.90;;;11.33;nan;98883.94;4955656;28;20212;-69
2022/04/07 02:44:52;;;;;;;0.20;0.20;;;11.00;99.90;;;11.35;nan;98872.34;4969743;28;21098;-69
2022/04/07 02:47:33;;;;;;;0.20;0.20;;;11.00;99.90;;;11.42;nan;98873.34;4959494;28;20663;-69
2022/04/07 02:50:00;;;;;;;0.20;0.20;;;11.10;99.90;;;11.46;nan;98858.16;4970509;28;20634;-69
2022/04/07 02:52:27;;;;;;;0.20;0.20;;;11.10;99.90;;;11.42;nan;98872.53;4961329;28;20628;-69
2022/04/07 02:54:54;;;;;;;0.30;0.30;;;11.10;99.90;;;11.35;nan;98869.72;4953377;28;20662;-70
2022/04/07 02:57:23;;;;;;;0.20;0.20;;;11.00;99.90;;;11.37;nan;98849.50;4949830;28;21245;-70
2022/04/07 02:59:51;;;;;;;0.20;0.20;;;11.00;99.90;;;11.33;nan;98861.22;4990823;28;20644;-70
2022/04/07 03:02:18;;;;;;;0.20;0.20;;;11.00;99.90;;;11.35;nan;98863.72;4955257;28;20997;-69
2022/04/07 03:04:45;;;;;;;0.20;0.20;;;11.00;99.90;;;11.23;nan;98854.50;4971019;28;20650;-69
2022/04/07 03:07:12;;;;;;;0.20;0.20;;;10.90;99.90;;;11.22;nan;98848.44;4972393;28;20670;-69
2022/04/07 03:09:40;;;;;;;0.20;0.20;;;10.90;99.90;;;11.36;nan;98863.53;4971142;28;20646;-69
2022/04/07 03:12:08;;;;;;;0.60;0.60;;;11.00;99.90;;;11.27;nan;98856.66;4954713;28;20619;-70
2022/04/07 03:14:35;;;;;;;0.20;0.20;;;11.00;99.90;;;11.28;nan;98831.38;4971344;28;20675;-70
2022/04/07 03:17:02;;;;;;;0.20;0.20;;;10.90;99.90;;;11.26;nan;98848.97;4953431;28;20646;-69
2022/04/07 03:19:29;;;;;;;0.20;0.20;;;11.00;99.90;;;11.29;nan;98848.66;4955066;28;20643;-69
2022/04/07 03:21:57;;;;;;;0.20;0.20;;;10.90;99.90;;;11.37;nan;98839.03;4970684;28;20635;-70
2022/04/07 03:24:24;;;;;;;0.20;0.20;;;11.00;99.90;;;11.38;nan;98847.72;4932292;28;21049;-66
2022/04/07 03:27:04;;;;;;;0.20;0.20;;;11.00;99.90;;;11.39;nan;98842.31;4955555;28;20659;-69
2022/04/07 03:29:32;;;;;;;0.20;0.20;;;11.10;99.90;;;11.39;nan;98847.53;4954540;28;20635;-67
2022/04/07 03:31:59;;;;;;;0.20;0.20;;;11.00;99.90;;;11.35;nan;98841.00;4971254;28;20641;-70
2022/04/07 03:34:26;;;;;;;0.20;0.20;;;11.00;99.90;;;11.43;nan;98829.78;4970175;28;20677;-70
2022/04/07 03:36:53;;;;;;;0.30;0.30;;;11.10;99.90;;;11.52;nan;98840.06;4971528;28;20670;-70
2022/04/07 03:39:20;;;;;;;0.20;0.20;;;11.20;99.90;;;11.45;nan;98838.28;4971564;28;21214;-70
2022/04/07 03:41:47;;;;;;;0.20;0.20;;;11.10;99.90;;;11.47;nan;98838.94;4992947;28;21193;-70
2022/04/07 03:44:14;;;;;;;0.20;0.20;;;11.10;99.90;;;11.47;nan;98831.09;5008905;28;20638;-70
2022/04/07 03:46:41;;;;;;;0.20;0.20;;;11.10;99.90;;;11.49;nan;98831.75;4983500;28;21308;-70
2022/04/07 03:49:08;;;;;;;0.20;0.20;;;11.20;99.90;;;11.47;nan;98820.66;4973413;28;20635;-70
2022/04/07 03:51:35;;;;;;;0.30;0.30;;;11.10;99.90;;;11.44;nan;98808.72;4954956;28;20636;-71
2022/04/07 03:54:06;;;;;;;0.20;0.20;;;11.10;99.90;;;11.43;nan;98817.56;4971216;28;20677;-70
2022/04/07 03:56:34;;;;;;;0.20;0.20;;;11.10;99.90;;;11.56;nan;98820.50;4957645;28;20623;-70
2022/04/07 03:59:01;;;;;;;0.20;0.20;;;11.20;99.90;;;11.51;nan;98820.19;4957695;28;20667;-70
2022/04/07 04:01:28;;;;;;;0.30;0.30;;;11.20;99.90;;;11.48;nan;98812.66;4984822;28;20666;-70
2022/04/07 04:03:55;;;;;;;0.20;0.20;;;11.10;99.90;;;11.55;nan;98810.22;4973054;28;20654;-70
2022/04/07 04:06:22;;;;;;;0.20;0.20;;;11.20;99.90;;;11.53;nan;98812.16;4975509;28;20630;-70
2022/04/07 04:08:49;;;;;;;0.20;0.20;;;11.20;99.90;;;11.52;nan;98807.94;4956508;28;20627;-69
2022/04/07 04:11:16;;;;;;;0.20;0.20;;;11.20;99.90;;;11.54;nan;98829.50;4954688;28;20627;-71
2022/04/07 04:13:43;;;;;;;0.20;0.20;;;11.20;99.90;;;11.53;nan;98825.22;4970827;28;21082;-70
2022/04/07 04:16:10;;;;;;;0.20;0.20;;;11.20;99.90;;;11.61;nan;98809.56;4971915;28;20654;-70
2022/04/07 04:18:37;;;;;;;0.20;0.20;;;11.20;99.90;;;11.59;nan;98809.75;4973214;28;20639;-70
2022/04/07 04:21:04;;;;;;;0.20;0.20;;;11.30;99.90;;;11.55;nan;98807.59;4973952;28;20627;-70
2022/04/07 04:23:32;;;;;;;0.20;0.20;;;11.20;99.90;;;11.63;nan;98799.78;4956190;28;20630;-70
2022/04/07 04:25:59;;;;;;;0.20;0.20;;;11.30;99.90;;;11.50;nan;98797.63;4972888;28;20638;-70
2022/04/07 04:28:26;;;;;;;0.20;0.20;;;11.20;99.90;;;11.50;nan;98787.19;4972654;28;20674;-70
2022/04/07 04:30:53;;;;;;;0.20;0.20;;;11.10;99.90;;;11.43;nan;98783.59;4956450;28;20945;-71
2022/04/07 04:33:20;;;;;;;0.20;0.20;;;11.10;99.90;;;11.28;nan;98779.16;4956306;28;20948;-69
2022/04/07 04:35:47;;;;;;;0.30;0.30;;;11.10;99.90;;;11.44;nan;98773.94;4976731;28;20664;-70
2022/04/07 04:38:14;;;;;;;0.20;0.20;;;11.10;99.90;;;11.34;nan;98773.28;4992622;28;20622;-70
2022/04/07 04:40:41;;;;;;;0.20;0.20;;;11.00;99.90;;;11.30;nan;98774.59;4959135;28;20642;-70
2022/04/07 04:43:08;;;;;;;0.20;0.20;;;10.90;99.90;;;11.28;nan;98776.53;4940241;28;21183;-70
2022/04/07 04:45:35;;;;;;;0.20;0.20;;;11.00;99.90;;;11.33;nan;98766.44;4971645;28;20666;-70
2022/04/07 04:48:02;;;;;;;0.20;0.20;;;11.00;99.90;;;11.44;nan;98758.28;4955229;28;20680;-70
2022/04/07 04:50:29;;;;;;;0.20;0.20;;;11.10;99.90;;;11.44;nan;98758.28;4956537;28;20638;-70
2022/04/07 04:52:56;;;;;;;0.20;0.20;;;11.10;99.90;;;11.42;nan;98765.47;4962713;28;20638;-70
2022/04/07 04:55:23;;;;;;;0.20;0.20;;;11.10;99.90;;;11.22;nan;98749.25;4972637;28;20690;-70
2022/04/07 04:57:53;;;;;;;0.20;0.20;;;11.00;99.90;;;11.26;nan;98741.94;4972172;28;20702;-70
2022/04/07 05:00:20;;;;;;;0.30;0.30;;;11.00;99.90;;;11.12;nan;98743.38;4973350;28;20624;-70
2022/04/07 05:02:47;;;;;;;0.20;0.20;;;10.90;99.90;;;11.05;nan;98731.13;4971910;28;20619;-70
2022/04/07 05:05:14;;;;;;;0.20;0.20;;;10.70;99.90;;;10.98;nan;98736.16;4954964;28;20663;-69
2022/04/07 05:07:41;;;;;;;0.20;0.20;;;10.70;99.90;;;11.00;nan;98736.00;4976193;28;21021;-69
2022/04/07 05:10:08;;;;;;;0.20;0.20;;;10.70;99.90;;;11.06;nan;98727.53;4952103;28;20634;-69
2022/04/07 05:12:35;;;;;;;0.20;0.20;;;10.80;99.90;;;10.99;nan;98727.34;4956670;28;20623;-68
2022/04/07 05:15:04;;;;;;;0.20;0.20;;;10.70;99.90;;;11.03;nan;98712.22;4967432;28;21291;-69
2022/04/07 05:17:31;;;;;;;0.30;0.30;;;10.70;99.90;;;11.15;nan;98713.53;4992345;28;20630;-68
2022/04/07 05:19:58;;;;;;;0.20;0.20;;;10.80;99.90;;;11.25;nan;98703.75;4985979;28;20646;-69
2022/04/07 05:22:25;;;;;;;0.30;0.30;;;10.90;99.90;;;11.29;nan;98712.88;4972222;28;20626;-68
2022/04/07 05:24:52;;;;;;;0.20;0.20;;;11.00;99.90;;;11.37;nan;98707.72;4982673;28;21036;-68
2022/04/07 05:27:19;;;;;;;0.20;0.20;;;11.00;99.90;;;11.32;nan;98702.13;4955934;28;20651;-69
2022/04/07 05:29:46;;;;;;;0.20;0.20;;;11.00;99.90;;;11.31;nan;98690.06;4971208;28;21182;-69
2022/04/07 05:32:13;;;;;;;0.20;0.20;;;11.10;99.90;;;11.42;nan;98692.34;4971487;28;20618;-69
2022/04/07 05:34:40;;;;;;;0.20;0.20;;;11.10;99.90;;;11.36;nan;98704.28;4971117;28;20659;-68
2022/04/07 05:37:07;;;;;;;0.20;0.20;;;11.00;99.90;;;11.43;nan;98699.22;4972582;28;20635;-69
2022/04/07 05:39:34;;;;;;;0.20;0.20;;;11.10;99.90;;;11.45;nan;98700.69;4971578;28;20638;-67
2022/04/07 05:42:01;;;;;;;0.30;0.30;;;11.10;99.90;;;11.38;nan;98683.22;4972170;28;20646;-69
2022/04/07 05:44:28;;;;;;;0.20;0.20;;;11.10;99.90;;;11.40;nan;98694.31;4954667;28;20666;-69
2022/04/07 05:46:55;;;;;;;0.20;0.20;;;11.00;99.90;;;11.47;nan;98692.69;4970715;28;20685;-69
2022/04/07 05:49:22;;;;;;;0.20;0.20;;;11.10;99.90;;;11.49;nan;98694.16;4971970;28;20658;-67
2022/04/07 05:51:53;;;;;;;0.20;0.20;;;11.20;99.90;;;11.48;nan;98689.09;4971665;28;20619;-69
2022/04/07 05:54:20;;;;;;;0.20;0.20;;;11.20;99.90;;;11.45;nan;98681.59;4982561;28;20695;-69
2022/04/07 05:56:47;;;;;;;0.20;0.20;;;11.20;99.90;;;11.43;nan;98676.53;4972293;28;21002;-69
2022/04/07 05:59:14;;;;;;;0.20;0.20;;;11.20;99.90;;;11.43;nan;98675.72;4955075;28;20627;-69
2022/04/07 06:01:41;;;;;;;0.20;0.20;;;11.10;99.90;;;11.59;nan;98670.47;4972276;28;20639;-69
2022/04/07 06:04:08;;;;;;;0.20;0.20;;;11.30;99.90;;;11.59;nan;98663.47;4971804;28;20666;-68
2022/04/07 06:06:35;;;;;;;0.20;0.20;;;11.30;99.90;;;11.50;nan;98661.00;4970179;28;20627;-68
2022/04/07 06:09:03;;;;;;;0.20;0.20;;;11.20;99.90;;;11.49;nan;98662.84;4969503;28;21256;-68
2022/04/07 06:11:30;;;;;;;0.20;0.20;;;11.20;99.90;;;11.52;nan;98644.22;4971102;28;20620;-68
2022/04/07 06:13:57;;;;;;;0.20;0.20;;;11.20;99.90;;;11.54;nan;98633.63;4970983;28;20651;-69
2022/04/07 06:16:24;;;;;;;0.20;0.20;;;11.20;99.90;;;11.53;nan;98639.81;4969026;28;20627;-69
2022/04/07 06:18:52;;;;;;;0.20;0.20;;;11.20;99.90;;;11.41;nan;98628.06;4954746;28;21235;-70
2022/04/07 06:21:20;;;;;;;0.20;0.20;;;11.20;99.90;;;11.32;nan;98621.22;4971178;28;20646;-68
2022/04/07 06:23:47;;;;;;;0.20;0.20;;;11.20;99.90;;;11.38;nan;98616.16;4954246;28;20671;-71
2022/04/07 06:26:14;;;;;;;0.20;0.20;;;11.10;99.90;;;11.28;nan;98609.47;4972572;28;20634;-68
2022/04/07 06:28:42;;;;;;;0.60;0.60;;;11.10;99.90;;;11.34;nan;98606.19;4949894;28;20978;-68
2022/04/07 06:31:09;;;;;;;0.20;0.20;;;11.10;99.90;;;11.31;nan;98606.50;4955419;28;21031;-68
2022/04/07 06:33:36;;;;;;;0.20;0.20;;;11.10;99.90;;;11.26;nan;98600.97;4985144;28;20641;-68
2022/04/07 06:36:23;;;;;;;0.20;0.20;;;11.00;99.90;;;11.42;nan;98587.91;4972508;28;20633;-68
2022/04/07 06:38:50;;;;;;;0.20;0.20;;;11.10;99.90;;;11.33;nan;98588.91;4975084;28;21229;-67
2022/04/07 06:41:17;;;;;;;0.20;0.20;;;11.10;99.90;;;11.28;nan;98581.56;4952833;28;20674;-70
2022/04/07 06:43:44;;;;;;;0.20;0.20;;;11.10;99.90;;;11.29;nan;98582.38;4970841;28;20657;-70
2022/04/07 06:46:12;;;;;;;0.20;0.20;;;11.10;99.90;;;11.19;nan;98572.09;4971016;28;20645;-70
2022/04/07 06:48:39;;;;;;;0.20;0.20;;;11.00;99.90;;;11.09;nan;98568.03;4953228;28;20675;-70
2022/04/07 06:51:06;;;;;;;0.20;0.20;;;10.80;99.90;;;11.11;nan;98564.28;4949838;28;20836;-70
2022/04/07 06:53:33;;;;;;;0.20;0.20;;;10.90;99.90;;;11.13;nan;98561.50;4956347;28;20918;-70
2022/04/07 06:55:59;;;;;;;0.20;0.20;;;10.90;99.90;;;11.23;nan;98562.16;5019743;23;20686;-66
2022/04/07 06:58:26;;;;;;;0.20;0.20;;;11.00;99.90;;;11.32;nan;98548.94;5029789;28;20629;-66
2022/04/07 07:00:53;;;;;;;0.20;0.20;;;11.10;99.90;;;11.25;nan;98541.91;5011728;28;20640;-66
2022/04/07 07:03:22;;;;;;;0.20;0.20;;;11.10;99.90;;;11.35;nan;98540.75;5029410;28;20632;-66
2022/04/07 07:05:49;;;;;;;0.20;0.20;;;11.20;99.90;;;11.38;nan;98547.44;4996418;28;20661;-65
2022/04/07 07:08:21;;;;;;;0.30;0.30;;;11.20;99.90;;;11.47;nan;98536.84;5009093;28;20668;-65
2022/04/07 07:10:50;;;;;;;0.20;0.20;;;11.30;99.90;;;11.41;nan;98526.25;4986593;28;20742;-66
2022/04/07 07:13:23;;;;;;;0.67;0.67;;;11.20;99.90;;;11.22;nan;98524.00;4991807;28;21189;-68
2022/04/07 07:15:54;;;;;;;0.20;0.20;;;11.10;99.90;;;11.17;nan;98493.16;4994900;28;21220;-66
2022/04/07 07:18:21;;;;;;;0.20;0.20;;;11.10;99.90;;;11.19;nan;98492.97;5013193;28;20637;-66
2022/04/07 07:20:48;;;;;;;0.20;0.20;;;11.00;99.90;;;11.22;nan;98497.88;5012025;28;20676;-66
2022/04/07 07:23:15;;;;;;;0.20;0.20;;;11.00;99.90;;;11.06;nan;98485.66;5013816;28;20633;-64
2022/04/07 07:25:43;;;;;;;0.20;0.20;;;11.00;99.90;;;10.94;nan;98485.19;4996246;28;20668;-66
2022/04/07 07:28:10;;;;;;;0.20;0.20;;;10.80;99.90;;;11.03;nan;98488.59;4964579;28;21086;-66
2022/04/07 07:30:37;;;;;;;0.20;0.20;;;10.80;99.90;;;11.05;nan;98480.63;4980904;28;20625;-67
2022/04/07 07:33:04;;;;;;;0.20;0.20;;;10.90;99.90;;;11.04;nan;98473.75;4996567;28;21192;-67
2022/04/07 07:35:31;;;;;;;0.20;0.20;;;10.90;99.90;;;11.06;nan;98462.19;5011676;28;20688;-66
2022/04/07 07:38:01;;;;;;;0.20;0.20;;;10.90;99.90;;;10.97;nan;98472.81;5014388;28;20613;-66
2022/04/07 07:40:31;;;;;;;0.20;0.20;;;10.80;99.90;;;10.94;nan;98468.72;5013103;28;21184;-66
2022/04/07 07:43:01;;;;;;;0.20;0.20;;;10.70;99.90;;;11.01;nan;98450.63;4996757;28;20632;-67
2022/04/07 07:45:32;;;;;;;0.20;0.20;;;10.70;99.90;;;10.79;nan;98445.09;4996110;28;21041;-67
2022/04/07 07:48:29;;;;;;;0.20;0.20;;;10.70;99.90;;;10.78;nan;98458.28;4996907;28;20665;-67
2022/04/07 07:50:57;;;;;;;0.20;0.20;;;10.60;99.90;;;10.84;nan;98447.19;5013207;28;20640;-66
2022/04/07 07:53:25;;;;;;;0.20;0.20;;;10.70;99.90;;;10.87;nan;98458.13;5013563;28;20633;-66
2022/04/07 07:55:53;;;;;;;0.20;0.20;;;10.70;99.90;;;10.85;nan;98459.28;4996043;28;20718;-67
2022/04/07 07:58:23;;;;;;;0.20;0.20;;;10.70;99.90;;;10.92;nan;98447.22;4996202;28;20625;-65
2022/04/07 08:00:51;;;;;;;0.20;0.20;;;10.70;99.90;;;10.88;nan;98462.34;4994247;28;20633;-66
2022/04/07 08:03:18;;;;;;;0.20;0.20;;;10.80;99.90;;;11.08;nan;98449.78;5013714;28;20627;-66
2022/04/07 08:05:45;;;;;;;0.30;0.30;;;10.90;99.90;;;11.01;nan;98443.59;5001984;28;20664;-66
2022/04/07 08:08:12;;;;;;;0.20;0.20;;;10.90;99.90;;;10.98;nan;98443.13;4990918;28;20710;-66
2022/04/07 08:10:40;;;;;;;0.20;0.20;;;10.80;99.90;;;10.90;nan;98415.25;5013550;28;20629;-66
2022/04/07 08:13:07;;;;;;;0.20;0.20;;;10.70;99.90;;;10.88;nan;98415.41;5007164;28;20620;-66
2022/04/07 08:15:34;;;;;;;0.20;0.20;;;10.70;99.90;;;10.87;nan;98411.19;5012882;28;20657;-66
2022/04/07 08:18:02;;;;;;;0.20;0.20;;;10.70;99.90;;;10.78;nan;98401.72;4992805;28;21013;-66
2022/04/07 08:20:29;;;;;;;0.20;0.20;;;10.60;99.90;;;10.79;nan;98399.94;4995493;28;20629;-66
2022/04/07 08:22:56;;;;;;;0.20;0.20;;;10.60;99.90;;;10.82;nan;98400.41;5012880;28;20633;-66
2022/04/07 08:25:23;;;;;;;0.30;0.30;;;10.70;99.90;;;10.83;nan;98404.66;5012787;28;21298;-66
2022/04/07 08:27:50;;;;;;;0.20;0.20;;;10.60;99.90;;;10.90;nan;98400.41;4993672;28;20677;-66
2022/04/07 08:30:17;;;;;;;0.30;0.30;;;10.70;99.90;;;11.10;nan;98394.81;4999623;28;21004;-66
2022/04/07 08:32:44;;;;;;;0.20;0.20;;;10.80;99.90;;;11.04;nan;98385.03;4996201;28;20612;-66
2022/04/07 08:35:11;;;;;;;0.20;0.20;;;10.80;99.90;;;11.11;nan;98399.06;4978260;28;21071;-66
2022/04/07 08:37:38;;;;;;;0.20;0.20;;;10.90;99.90;;;11.08;nan;98400.19;4994581;28;20621;-66
2022/04/07 08:40:07;;;;;;;0.20;0.20;;;11.00;99.90;;;11.10;nan;98394.81;4994246;28;20649;-67
2022/04/07 08:42:35;;;;;;;0.20;0.20;;;11.00;99.90;;;11.24;nan;98384.50;4996534;28;20613;-66
2022/04/07 08:45:03;;;;;;;0.20;0.20;;;11.10;99.90;;;11.26;nan;98379.13;4977694;28;21420;-68
2022/04/07 08:47:33;;;;;;;0.20;0.20;;;11.10;99.90;;;11.19;nan;98384.19;4993341;28;20980;-66
2022/04/07 08:50:03;;;;;;;0.20;0.20;;;11.10;99.90;;;11.26;nan;98366.06;4986865;28;20625;-66
2022/04/07 08:52:32;;;;;;;0.20;0.20;;;11.10;99.90;;;11.21;nan;98361.34;5008366;28;21094;-66
2022/04/07 08:55:00;;;;;;;0.20;0.20;;;11.10;99.90;;;11.35;nan;98349.41;4974794;28;20654;-66
2022/04/07 08:57:29;;;;;;;0.20;0.20;;;11.20;99.90;;;11.31;nan;98355.91;4992350;28;21035;-66
2022/04/07 08:59:57;;;;;;;0.20;0.20;;;11.20;99.90;;;11.44;nan;98349.16;4994941;28;20635;-66
2022/04/07 09:02:24;;;;;;;0.20;0.20;;;11.30;99.90;;;11.39;nan;98358.50;5012125;28;20669;-66
2022/04/07 09:05:00;;;;;;;0.20;0.20;;;11.30;99.90;;;11.40;nan;98354.91;5012264;28;21217;-66
2022/04/07 09:07:32;;;;;;;0.20;0.20;;;11.30;99.90;;;11.44;nan;98340.50;5004749;28;21201;-67
2022/04/07 09:10:02;;;;;;;0.20;0.20;;;11.30;99.90;;;11.47;nan;98359.28;4993006;28;20646;-67
2022/04/07 09:12:29;;;;;;;0.20;0.20;;;11.30;99.90;;;11.48;nan;98320.91;4976211;28;21208;-66
2022/04/07 09:14:59;;;;;;;0.20;0.20;;;11.30;99.90;;;11.40;nan;98331.41;4974657;28;20650;-66
2022/04/07 09:17:26;;;;;;;0.20;0.20;;;11.30;99.90;;;11.57;nan;98328.53;4978807;28;20636;-65
2022/04/07 09:19:54;;;;;;;0.20;0.20;;;11.40;99.90;;;11.55;nan;98321.84;5011223;28;20617;-66
2022/04/07 09:22:31;;;;;;;0.20;0.20;;;11.40;99.90;;;11.56;nan;98318.28;4993225;28;20636;-67
2022/04/07 09:25:05;;;;;;;0.20;0.20;;;11.40;99.90;;;11.50;nan;98306.69;5010882;28;21076;-67
2022/04/07 09:27:32;;;;;;;0.20;0.20;;;11.40;99.90;;;11.49;nan;98306.88;4993564;28;21211;-67
2022/04/07 09:30:00;;;;;;;0.20;0.20;;;11.30;99.90;;;11.60;nan;98298.66;4995114;28;20665;-67
2022/04/07 09:32:27;;;;;;;0.20;0.20;;;11.40;99.90;;;11.50;nan;98298.06;4994269;28;20617;-66
2022/04/07 09:34:57;;;;;;;0.20;0.20;;;11.40;99.90;;;11.61;nan;98302.88;5012352;28;20646;-66
2022/04/07 09:37:27;;;;;;;0.20;0.20;;;11.40;99.90;;;11.59;nan;98291.81;4992781;28;20638;-66
2022/04/07 09:40:13;;;;;;;0.20;0.20;;;11.40;99.90;;;11.62;nan;98283.63;4994299;28;20622;-68
2022/04/07 09:42:43;;;;;;;0.20;0.20;;;11.40;99.90;;;11.54;nan;98270.63;4994572;28;20624;-67
2022/04/07 09:45:13;;;;;;;0.20;0.20;;;11.40;99.90;;;11.57;nan;98272.88;5011098;28;20661;-67
2022/04/07 09:47:40;;;;;;;0.20;0.20;;;11.40;99.90;;;11.63;nan;98269.56;5008825;28;20629;-66
2022/04/07 09:50:19;;;;;;;0.20;0.20;;;11.50;99.90;;;11.69;nan;98285.41;5011084;28;21255;-66
2022/04/07 09:52:55;;;;;;;0.20;0.20;;;11.50;99.90;;;11.77;nan;98273.28;4992917;28;20633;-66
2022/04/07 09:55:44;;;;;;;0.20;0.20;;;11.50;99.90;;;11.73;nan;98277.22;5011784;28;20676;-66
2022/04/07 09:58:12;;;;;;;0.20;0.20;;;11.60;99.90;;;11.86;nan;98272.22;5009945;28;21208;-66
2022/04/07 10:00:40;;;;;;;0.20;0.20;;;11.60;99.90;;;11.70;nan;98273.16;4993274;28;21215;-66
2022/04/07 10:03:08;;;;;;;0.20;0.20;;;11.50;99.90;;;11.50;nan;98264.09;4985019;28;20642;-67
2022/04/07 10:05:37;;;;;;;0.20;0.20;;;11.30;99.90;;;11.45;nan;98264.66;4983696;28;20664;-66
2022/04/07 10:08:06;;;;;;;0.20;0.20;;;11.30;99.90;;;11.53;nan;98255.94;4992208;28;21205;-66
2022/04/07 10:10:35;;;;;;;0.20;0.20;;;11.30;99.90;;;11.53;nan;98245.50;4992921;28;21153;-66
2022/04/07 10:13:02;;;;;;;1.03;0.93;;;11.30;99.90;;;11.59;nan;98229.94;4993530;28;20614;-66
2022/04/07 10:15:29;;;;;;;0.20;0.20;;;11.40;99.90;;;11.59;nan;98219.50;4976641;28;20645;-66
2022/04/07 10:18:01;;;;;;;0.20;0.20;;;11.40;99.90;;;11.56;nan;98219.03;4987349;28;21053;-66
2022/04/07 10:20:49;;;;;;;0.20;0.20;;;11.40;99.90;;;11.60;nan;98215.91;5010879;28;21264;-66
2022/04/07 10:23:49;;;;;;;0.20;0.20;;;11.40;99.90;;;11.59;nan;98200.41;4994722;28;20704;-66
2022/04/07 10:26:18;;;;;;;0.30;0.30;;;11.40;99.90;;;11.65;nan;98195.28;4992302;28;20676;-67
2022/04/07 10:28:56;;;;;;;0.20;0.20;;;11.50;99.90;;;11.75;nan;98186.44;4961333;28;20981;-67
2022/04/07 10:31:25;;;;;;;0.20;0.20;;;11.60;99.90;;;11.85;nan;98166.91;5011248;28;20621;-66
2022/04/07 10:34:06;;;;;;;0.20;0.20;;;11.70;99.90;;;11.93;nan;98173.84;4993138;28;20608;-66
2022/04/07 10:36:40;;;;;;;0.20;0.20;;;11.70;99.90;;;11.91;nan;98171.41;4989005;28;21200;-66
2022/04/07 10:39:15;;;;;;;0.20;0.20;;;11.80;99.90;;;11.95;nan;98156.19;4993425;28;20628;-68
2022/04/07 10:41:47;;;;;;;0.20;0.20;;;11.80;99.90;;;11.95;nan;98164.84;4993921;28;21168;-65